sensor_id;sensor_type;location;lat;lon;timestamp;temperature;humidity
16974;DHT22;8603;46.944;7.412;2023-05-10T00:01:01;12.60;99.90
16974;DHT22;8603;46.944;7.412;2023-05-10T00:03:37;12.60;99.90
16974;DHT22;8603;46.944;7.412;2023-05-10T00:06:03;12.70;99.90
16974;DHT22;8603;46.944;7.412;2023-05-10T00:11:37;12.60;99.90
16974;DHT22;8603;46.944;7.412;2023-05-10T00:14:17;12.60;99.90
16974;DHT22;8603;46.944;7.412;2023-05-10T00:20:17;12.50;99.90
16974;DHT22;8603;46.944;7.412;2023-05-10T00:23:05;12.40;99.90
16974;DHT22;8603;46.944;7.412;2023-05-10T00:26:14;12.40;99.90
16974;DHT22;8603;46.944;7.412;2023-05-10T00:28:46;12.20;99.90
16974;DHT22;8603;46.944;7.412;2023-05-10T00:31:19;12.20;99.90
16974;DHT22;8603;46.944;7.412;2023-05-10T00:33:47;12.10;99.90
16974;DHT22;8603;46.944;7.412;2023-05-10T00:36:20;11.90;99.90
16974;DHT22;8603;46.944;7.412;2023-05-10T00:39:01;11.90;99.90
16974;DHT22;8603;46.944;7.412;2023-05-10T00:45:47;11.80;99.90
16974;DHT22;8603;46.944;7.412;2023-05-10T00:48:42;11.70;99.90
16974;DHT22;8603;46.944;7.412;2023-05-10T00:51:17;11.80;99.90
16974;DHT22;8603;46.944;7.412;2023-05-10T00:57:08;11.90;99.90
16974;DHT22;8603;46.944;7.412;2023-05-10T01:03:26;11.90;99.90
16974;DHT22;8603;46.944;7.412;2023-05-10T01:06:18;12.00;99.90
16974;DHT22;8603;46.944;7.412;2023-05-10T01:08:51;11.90;99.90
16974;DHT22;8603;46.944;7.412;2023-05-10T01:11:53;11.90;99.90
16974;DHT22;8603;46.944;7.412;2023-05-10T01:17:46;12.00;99.90
16974;DHT22;8603;46.944;7.412;2023-05-10T01:20:32;11.90;99.90
16974;DHT22;8603;46.944;7.412;2023-05-10T01:29:18;11.90;99.90
16974;DHT22;8603;46.944;7.412;2023-05-10T01:35:03;11.80;99.90
16974;DHT22;8603;46.944;7.412;2023-05-10T01:40:44;11.90;99.90
16974;DHT22;8603;46.944;7.412;2023-05-10T01:43:21;11.90;99.90
16974;DHT22;8603;46.944;7.412;2023-05-10T01:46:05;11.90;99.90
16974;DHT22;8603;46.944;7.412;2023-05-10T01:48:57;11.90;99.90
16974;DHT22;8603;46.944;7.412;2023-05-10T01:51:47;11.90;99.90
16974;DHT22;8603;46.944;7.412;2023-05-10T01:54:21;11.90;99.90
16974;DHT22;8603;46.944;7.412;2023-05-10T01:56:57;11.90;99.90
16974;DHT22;8603;46.944;7.412;2023-05-10T01:59:36;11.70;99.90
16974;DHT22;8603;46.944;7.412;2023-05-10T02:02:56;11.70;99.90
16974;DHT22;8603;46.944;7.412;2023-05-10T02:05:27;11.70;99.90
16974;DHT22;8603;46.944;7.412;2023-05-10T02:08:06;11.70;99.90
16974;DHT22;8603;46.944;7.412;2023-05-10T02:10:44;11.60;99.90
16974;DHT22;8603;46.944;7.412;2023-05-10T02:13:21;11.60;99.90
16974;DHT22;8603;46.944;7.412;2023-05-10T02:15:59;11.60;99.90
16974;DHT22;8603;46.944;7.412;2023-05-10T02:18:29;11.60;99.90
16974;DHT22;8603;46.944;7.412;2023-05-10T02:21:00;11.60;99.90
16974;DHT22;8603;46.944;7.412;2023-05-10T02:23:48;11.70;99.90
16974;DHT22;8603;46.944;7.412;2023-05-10T02:26:20;11.60;99.90
16974;DHT22;8603;46.944;7.412;2023-05-10T02:28:51;11.60;99.90
16974;DHT22;8603;46.944;7.412;2023-05-10T02:31:22;11.70;99.90
16974;DHT22;8603;46.944;7.412;2023-05-10T02:33:49;11.70;99.90
16974;DHT22;8603;46.944;7.412;2023-05-10T02:36:28;11.60;99.90
16974;DHT22;8603;46.944;7.412;2023-05-10T02:39:12;11.60;99.90
16974;DHT22;8603;46.944;7.412;2023-05-10T02:41:45;11.60;99.90
16974;DHT22;8603;46.944;7.412;2023-05-10T02:44:14;11.70;99.90
16974;DHT22;8603;46.944;7.412;2023-05-10T02:46:41;11.80;99.90
16974;DHT22;8603;46.944;7.412;2023-05-10T02:49:07;11.80;99.90
16974;DHT22;8603;46.944;7.412;2023-05-10T02:51:35;11.90;99.90
16974;DHT22;8603;46.944;7.412;2023-05-10T02:54:12;11.90;99.90
16974;DHT22;8603;46.944;7.412;2023-05-10T02:56:49;11.80;99.90
16974;DHT22;8603;46.944;7.412;2023-05-10T02:59:20;11.80;99.90
16974;DHT22;8603;46.944;7.412;2023-05-10T03:01:46;11.80;99.90
16974;DHT22;8603;46.944;7.412;2023-05-10T03:04:12;12.00;99.90
16974;DHT22;8603;46.944;7.412;2023-05-10T03:06:39;11.80;99.90
16974;DHT22;8603;46.944;7.412;2023-05-10T03:09:21;11.80;99.90
16974;DHT22;8603;46.944;7.412;2023-05-10T03:12:00;11.70;99.90
16974;DHT22;8603;46.944;7.412;2023-05-10T03:14:42;11.60;99.90
16974;DHT22;8603;46.944;7.412;2023-05-10T03:17:15;11.40;99.90
16974;DHT22;8603;46.944;7.412;2023-05-10T03:20:10;11.30;99.90
16974;DHT22;8603;46.944;7.412;2023-05-10T03:22:54;11.20;99.90
16974;DHT22;8603;46.944;7.412;2023-05-10T03:28:28;11.10;99.90
16974;DHT22;8603;46.944;7.412;2023-05-10T03:31:04;11.00;99.90
16974;DHT22;8603;46.944;7.412;2023-05-10T03:33:51;11.00;99.90
16974;DHT22;8603;46.944;7.412;2023-05-10T03:36:18;11.00;99.90
16974;DHT22;8603;46.944;7.412;2023-05-10T03:38:43;11.00;99.90
16974;DHT22;8603;46.944;7.412;2023-05-10T03:41:09;11.00;99.90
16974;DHT22;8603;46.944;7.412;2023-05-10T03:43:35;10.90;99.90
16974;DHT22;8603;46.944;7.412;2023-05-10T03:46:22;10.80;99.90
16974;DHT22;8603;46.944;7.412;2023-05-10T03:48:47;10.70;99.90
16974;DHT22;8603;46.944;7.412;2023-05-10T03:51:19;10.70;99.90
16974;DHT22;8603;46.944;7.412;2023-05-10T03:53:50;10.70;99.90
16974;DHT22;8603;46.944;7.412;2023-05-10T03:56:19;10.50;99.90
16974;DHT22;8603;46.944;7.412;2023-05-10T03:58:46;10.40;99.90
16974;DHT22;8603;46.944;7.412;2023-05-10T04:01:12;10.30;99.90
16974;DHT22;8603;46.944;7.412;2023-05-10T04:03:37;10.30;99.90
16974;DHT22;8603;46.944;7.412;2023-05-10T04:06:06;10.30;99.90
16974;DHT22;8603;46.944;7.412;2023-05-10T04:08:34;10.30;99.90
16974;DHT22;8603;46.944;7.412;2023-05-10T04:11:13;10.20;99.90
16974;DHT22;8603;46.944;7.412;2023-05-10T04:13:39;10.20;99.90
16974;DHT22;8603;46.944;7.412;2023-05-10T04:16:05;10.30;99.90
16974;DHT22;8603;46.944;7.412;2023-05-10T04:18:34;10.30;99.90
16974;DHT22;8603;46.944;7.412;2023-05-10T04:21:14;10.50;99.90
16974;DHT22;8603;46.944;7.412;2023-05-10T04:23:40;10.30;99.90
16974;DHT22;8603;46.944;7.412;2023-05-10T04:26:06;10.50;99.90
16974;DHT22;8603;46.944;7.412;2023-05-10T04:28:32;10.60;99.90
16974;DHT22;8603;46.944;7.412;2023-05-10T04:31:05;10.60;99.90
16974;DHT22;8603;46.944;7.412;2023-05-10T04:33:35;10.60;99.90
16974;DHT22;8603;46.944;7.412;2023-05-10T04:36:02;10.70;99.90
16974;DHT22;8603;46.944;7.412;2023-05-10T04:38:28;10.70;99.90
16974;DHT22;8603;46.944;7.412;2023-05-10T04:40:54;10.60;99.90
16974;DHT22;8603;46.944;7.412;2023-05-10T04:43:20;10.60;99.90
16974;DHT22;8603;46.944;7.412;2023-05-10T04:45:49;10.50;99.90
16974;DHT22;8603;46.944;7.412;2023-05-10T04:48:26;10.60;99.90
16974;DHT22;8603;46.944;7.412;2023-05-10T04:50:52;10.80;99.90
16974;DHT22;8603;46.944;7.412;2023-05-10T04:53:17;10.90;99.90
16974;DHT22;8603;46.944;7.412;2023-05-10T04:55:43;11.00;99.90
16974;DHT22;8603;46.944;7.412;2023-05-10T04:58:08;11.10;99.90
16974;DHT22;8603;46.944;7.412;2023-05-10T05:00:34;11.20;99.90
16974;DHT22;8603;46.944;7.412;2023-05-10T05:03:00;11.20;99.90
16974;DHT22;8603;46.944;7.412;2023-05-10T05:05:26;11.30;99.90
16974;DHT22;8603;46.944;7.412;2023-05-10T05:07:57;11.30;99.90
16974;DHT22;8603;46.944;7.412;2023-05-10T05:10:23;11.40;99.90
16974;DHT22;8603;46.944;7.412;2023-05-10T05:12:49;11.50;99.90
16974;DHT22;8603;46.944;7.412;2023-05-10T05:15:15;11.40;99.90
16974;DHT22;8603;46.944;7.412;2023-05-10T05:17:42;11.30;99.90
16974;DHT22;8603;46.944;7.412;2023-05-10T05:20:08;11.40;99.90
16974;DHT22;8603;46.944;7.412;2023-05-10T05:22:38;11.40;99.90
16974;DHT22;8603;46.944;7.412;2023-05-10T05:25:05;11.40;99.90
16974;DHT22;8603;46.944;7.412;2023-05-10T05:27:31;11.60;99.90
16974;DHT22;8603;46.944;7.412;2023-05-10T05:30:00;11.60;99.90
16974;DHT22;8603;46.944;7.412;2023-05-10T05:32:29;11.60;99.90
16974;DHT22;8603;46.944;7.412;2023-05-10T05:34:55;11.60;99.90
16974;DHT22;8603;46.944;7.412;2023-05-10T05:37:21;11.60;99.90
16974;DHT22;8603;46.944;7.412;2023-05-10T05:39:48;11.50;99.90
16974;DHT22;8603;46.944;7.412;2023-05-10T05:42:14;11.40;99.90
16974;DHT22;8603;46.944;7.412;2023-05-10T05:44:41;11.40;99.90
16974;DHT22;8603;46.944;7.412;2023-05-10T05:47:10;11.20;99.90
16974;DHT22;8603;46.944;7.412;2023-05-10T05:49:36;11.30;99.90
16974;DHT22;8603;46.944;7.412;2023-05-10T05:52:16;11.30;99.90
16974;DHT22;8603;46.944;7.412;2023-05-10T05:54:42;11.30;99.90
16974;DHT22;8603;46.944;7.412;2023-05-10T05:57:08;11.30;99.90
16974;DHT22;8603;46.944;7.412;2023-05-10T05:59:44;11.40;99.90
16974;DHT22;8603;46.944;7.412;2023-05-10T06:02:13;11.40;99.90
16974;DHT22;8603;46.944;7.412;2023-05-10T06:04:39;11.40;99.90
16974;DHT22;8603;46.944;7.412;2023-05-10T06:07:07;11.40;99.90
16974;DHT22;8603;46.944;7.412;2023-05-10T06:09:33;11.60;99.90
16974;DHT22;8603;46.944;7.412;2023-05-10T06:11:58;11.60;99.90
16974;DHT22;8603;46.944;7.412;2023-05-10T06:14:24;11.80;99.90
16974;DHT22;8603;46.944;7.412;2023-05-10T06:16:50;11.90;99.90
16974;DHT22;8603;46.944;7.412;2023-05-10T06:19:15;12.00;99.90
16974;DHT22;8603;46.944;7.412;2023-05-10T06:21:41;12.30;99.90
16974;DHT22;8603;46.944;7.412;2023-05-10T06:24:14;12.50;99.90
16974;DHT22;8603;46.944;7.412;2023-05-10T06:26:40;12.70;99.90
16974;DHT22;8603;46.944;7.412;2023-05-10T06:29:14;12.60;99.90
16974;DHT22;8603;46.944;7.412;2023-05-10T06:31:40;12.70;99.90
16974;DHT22;8603;46.944;7.412;2023-05-10T06:34:06;12.70;99.90
16974;DHT22;8603;46.944;7.412;2023-05-10T06:36:38;12.70;99.90
16974;DHT22;8603;46.944;7.412;2023-05-10T06:39:06;12.70;99.90
16974;DHT22;8603;46.944;7.412;2023-05-10T06:41:32;12.80;99.90
16974;DHT22;8603;46.944;7.412;2023-05-10T06:44:08;12.80;99.90
16974;DHT22;8603;46.944;7.412;2023-05-10T06:46:42;12.90;99.90
16974;DHT22;8603;46.944;7.412;2023-05-10T06:49:30;13.10;99.90
16974;DHT22;8603;46.944;7.412;2023-05-10T06:51:59;13.40;99.90
16974;DHT22;8603;46.944;7.412;2023-05-10T06:54:35;13.80;99.90
16974;DHT22;8603;46.944;7.412;2023-05-10T06:57:04;14.20;99.90
16974;DHT22;8603;46.944;7.412;2023-05-10T06:59:46;14.40;99.90
16974;DHT22;8603;46.944;7.412;2023-05-10T07:02:12;14.50;99.90
16974;DHT22;8603;46.944;7.412;2023-05-10T07:04:38;14.40;99.90
16974;DHT22;8603;46.944;7.412;2023-05-10T07:07:04;14.40;99.90
16974;DHT22;8603;46.944;7.412;2023-05-10T07:09:39;14.30;99.90
16974;DHT22;8603;46.944;7.412;2023-05-10T07:12:05;14.30;99.90
16974;DHT22;8603;46.944;7.412;2023-05-10T07:14:31;14.10;99.90
16974;DHT22;8603;46.944;7.412;2023-05-10T07:16:57;14.00;99.90
16974;DHT22;8603;46.944;7.412;2023-05-10T07:19:24;13.80;99.90
16974;DHT22;8603;46.944;7.412;2023-05-10T07:21:50;13.60;99.90
16974;DHT22;8603;46.944;7.412;2023-05-10T07:24:16;13.50;99.90
16974;DHT22;8603;46.944;7.412;2023-05-10T07:26:42;13.40;99.90
16974;DHT22;8603;46.944;7.412;2023-05-10T07:29:07;13.20;99.90
16974;DHT22;8603;46.944;7.412;2023-05-10T07:31:33;13.20;99.90
16974;DHT22;8603;46.944;7.412;2023-05-10T07:33:59;12.90;99.90
16974;DHT22;8603;46.944;7.412;2023-05-10T07:36:24;12.80;99.90
16974;DHT22;8603;46.944;7.412;2023-05-10T07:38:50;12.80;99.90
16974;DHT22;8603;46.944;7.412;2023-05-10T07:41:16;12.70;99.90
16974;DHT22;8603;46.944;7.412;2023-05-10T07:43:41;12.80;99.90
16974;DHT22;8603;46.944;7.412;2023-05-10T07:46:08;12.90;99.90
16974;DHT22;8603;46.944;7.412;2023-05-10T07:48:38;13.00;99.90
16974;DHT22;8603;46.944;7.412;2023-05-10T07:51:07;13.00;99.90
16974;DHT22;8603;46.944;7.412;2023-05-10T07:53:34;12.90;99.90
16974;DHT22;8603;46.944;7.412;2023-05-10T07:56:23;12.90;99.90
16974;DHT22;8603;46.944;7.412;2023-05-10T07:58:51;12.80;99.90
16974;DHT22;8603;46.944;7.412;2023-05-10T08:01:17;12.70;99.90
16974;DHT22;8603;46.944;7.412;2023-05-10T08:03:43;12.60;99.90
16974;DHT22;8603;46.944;7.412;2023-05-10T08:06:09;12.60;99.90
16974;DHT22;8603;46.944;7.412;2023-05-10T08:08:35;12.50;99.90
16974;DHT22;8603;46.944;7.412;2023-05-10T08:11:01;12.60;99.90
16974;DHT22;8603;46.944;7.412;2023-05-10T08:13:27;12.40;99.90
16974;DHT22;8603;46.944;7.412;2023-05-10T08:15:53;12.50;99.90
16974;DHT22;8603;46.944;7.412;2023-05-10T08:18:19;12.40;99.90
16974;DHT22;8603;46.944;7.412;2023-05-10T08:20:44;12.40;99.90
16974;DHT22;8603;46.944;7.412;2023-05-10T08:23:12;12.40;99.90
16974;DHT22;8603;46.944;7.412;2023-05-10T08:25:37;12.40;99.90
16974;DHT22;8603;46.944;7.412;2023-05-10T08:28:03;12.40;99.90
16974;DHT22;8603;46.944;7.412;2023-05-10T08:30:32;12.50;99.90
16974;DHT22;8603;46.944;7.412;2023-05-10T08:32:58;12.60;99.90
16974;DHT22;8603;46.944;7.412;2023-05-10T08:35:26;12.90;99.90
16974;DHT22;8603;46.944;7.412;2023-05-10T08:37:55;13.20;99.90
16974;DHT22;8603;46.944;7.412;2023-05-10T08:40:21;13.60;99.90
16974;DHT22;8603;46.944;7.412;2023-05-10T08:42:58;14.00;99.90
16974;DHT22;8603;46.944;7.412;2023-05-10T08:45:24;14.50;99.90
16974;DHT22;8603;46.944;7.412;2023-05-10T08:47:54;15.00;99.90
16974;DHT22;8603;46.944;7.412;2023-05-10T08:50:20;15.30;99.90
16974;DHT22;8603;46.944;7.412;2023-05-10T08:52:53;15.40;99.90
16974;DHT22;8603;46.944;7.412;2023-05-10T08:55:20;15.50;99.90
16974;DHT22;8603;46.944;7.412;2023-05-10T08:57:48;15.40;99.90
16974;DHT22;8603;46.944;7.412;2023-05-10T09:00:18;15.40;99.90
16974;DHT22;8603;46.944;7.412;2023-05-10T09:02:44;15.30;99.90
16974;DHT22;8603;46.944;7.412;2023-05-10T09:05:12;15.20;99.90
16974;DHT22;8603;46.944;7.412;2023-05-10T09:07:37;15.10;99.90
16974;DHT22;8603;46.944;7.412;2023-05-10T09:10:20;15.00;99.90
16974;DHT22;8603;46.944;7.412;2023-05-10T09:12:46;15.00;99.90
16974;DHT22;8603;46.944;7.412;2023-05-10T09:15:19;15.60;99.90
16974;DHT22;8603;46.944;7.412;2023-05-10T09:17:57;17.60;99.90
16974;DHT22;8603;46.944;7.412;2023-05-10T09:20:29;21.00;99.90
16974;DHT22;8603;46.944;7.412;2023-05-10T09:22:56;24.00;99.90
16974;DHT22;8603;46.944;7.412;2023-05-10T09:25:28;25.10;99.90
16974;DHT22;8603;46.944;7.412;2023-05-10T09:27:55;24.70;99.90
16974;DHT22;8603;46.944;7.412;2023-05-10T09:30:29;23.50;99.90
16974;DHT22;8603;46.944;7.412;2023-05-10T09:32:56;22.50;99.90
16974;DHT22;8603;46.944;7.412;2023-05-10T09:35:24;21.50;99.90
16974;DHT22;8603;46.944;7.412;2023-05-10T09:37:52;20.80;99.90
16974;DHT22;8603;46.944;7.412;2023-05-10T09:40:26;20.00;99.90
16974;DHT22;8603;46.944;7.412;2023-05-10T09:43:01;19.30;99.90
16974;DHT22;8603;46.944;7.412;2023-05-10T09:45:33;18.50;99.90
16974;DHT22;8603;46.944;7.412;2023-05-10T09:48:00;17.90;99.90
16974;DHT22;8603;46.944;7.412;2023-05-10T09:50:27;17.40;99.90
16974;DHT22;8603;46.944;7.412;2023-05-10T09:52:57;17.10;99.90
16974;DHT22;8603;46.944;7.412;2023-05-10T09:58:02;16.40;99.90
16974;DHT22;8603;46.944;7.412;2023-05-10T10:00:38;16.10;99.90
16974;DHT22;8603;46.944;7.412;2023-05-10T10:03:04;16.10;99.90
16974;DHT22;8603;46.944;7.412;2023-05-10T10:05:32;16.10;99.90
16974;DHT22;8603;46.944;7.412;2023-05-10T10:07:59;15.80;99.90
16974;DHT22;8603;46.944;7.412;2023-05-10T10:10:28;15.70;99.90
16974;DHT22;8603;46.944;7.412;2023-05-10T10:12:58;16.10;99.90
16974;DHT22;8603;46.944;7.412;2023-05-10T10:15:41;16.50;99.90
16974;DHT22;8603;46.944;7.412;2023-05-10T10:18:14;17.00;99.90
16974;DHT22;8603;46.944;7.412;2023-05-10T10:20:43;17.60;99.90
16974;DHT22;8603;46.944;7.412;2023-05-10T10:26:24;18.30;99.90
16974;DHT22;8603;46.944;7.412;2023-05-10T10:29:31;18.70;99.90
16974;DHT22;8603;46.944;7.412;2023-05-10T10:35:30;19.20;99.90
16974;DHT22;8603;46.944;7.412;2023-05-10T10:37:56;19.10;99.90
16974;DHT22;8603;46.944;7.412;2023-05-10T10:40:30;19.20;99.90
16974;DHT22;8603;46.944;7.412;2023-05-10T10:42:57;19.10;99.90
16974;DHT22;8603;46.944;7.412;2023-05-10T10:45:24;19.10;99.90
16974;DHT22;8603;46.944;7.412;2023-05-10T10:48:20;19.30;99.90
16974;DHT22;8603;46.944;7.412;2023-05-10T10:50:56;19.60;99.90
16974;DHT22;8603;46.944;7.412;2023-05-10T10:53:47;19.60;99.90
16974;DHT22;8603;46.944;7.412;2023-05-10T10:56:17;19.70;99.90
16974;DHT22;8603;46.944;7.412;2023-05-10T10:58:59;19.70;99.90
16974;DHT22;8603;46.944;7.412;2023-05-10T11:01:33;19.60;99.90
16974;DHT22;8603;46.944;7.412;2023-05-10T11:17:28;19.80;99.90
16974;DHT22;8603;46.944;7.412;2023-05-10T11:47:39;20.60;99.90
16974;DHT22;8603;46.944;7.412;2023-05-10T11:50:48;20.70;99.90
16974;DHT22;8603;46.944;7.412;2023-05-10T11:53:44;20.50;99.90
16974;DHT22;8603;46.944;7.412;2023-05-10T11:56:54;20.20;99.90
16974;DHT22;8603;46.944;7.412;2023-05-10T11:59:22;19.90;99.90
16974;DHT22;8603;46.944;7.412;2023-05-10T12:08:59;19.70;99.90
16974;DHT22;8603;46.944;7.412;2023-05-10T12:15:13;20.20;99.90
16974;DHT22;8603;46.944;7.412;2023-05-10T12:21:33;20.90;99.90
16974;DHT22;8603;46.944;7.412;2023-05-10T12:24:27;21.20;99.90
16974;DHT22;8603;46.944;7.412;2023-05-10T12:27:20;21.20;99.90
16974;DHT22;8603;46.944;7.412;2023-05-10T12:30:35;21.00;99.90
16974;DHT22;8603;46.944;7.412;2023-05-10T12:39:50;20.50;99.90
16974;DHT22;8603;46.944;7.412;2023-05-10T12:42:18;20.40;99.90
16974;DHT22;8603;46.944;7.412;2023-05-10T12:44:58;20.50;99.90
16974;DHT22;8603;46.944;7.412;2023-05-10T12:54:46;19.90;99.90
16974;DHT22;8603;46.944;7.412;2023-05-10T13:01:06;19.60;99.90
16974;DHT22;8603;46.944;7.412;2023-05-10T13:06:55;18.80;99.90
16974;DHT22;8603;46.944;7.412;2023-05-10T13:09:24;17.60;99.90
16974;DHT22;8603;46.944;7.412;2023-05-10T13:11:50;16.90;99.90
16974;DHT22;8603;46.944;7.412;2023-05-10T13:14:30;16.20;99.90
16974;DHT22;8603;46.944;7.412;2023-05-10T13:46:35;15.00;99.90
16974;DHT22;8603;46.944;7.412;2023-05-10T13:49:18;15.70;99.90
16974;DHT22;8603;46.944;7.412;2023-05-10T13:51:54;16.20;99.90
16974;DHT22;8603;46.944;7.412;2023-05-10T13:57:33;16.90;99.90
16974;DHT22;8603;46.944;7.412;2023-05-10T14:00:01;17.30;99.90
16974;DHT22;8603;46.944;7.412;2023-05-10T14:02:40;17.60;99.90
16974;DHT22;8603;46.944;7.412;2023-05-10T14:05:08;17.80;99.90
16974;DHT22;8603;46.944;7.412;2023-05-10T14:07:37;18.00;99.90
16974;DHT22;8603;46.944;7.412;2023-05-10T14:10:03;18.30;99.90
16974;DHT22;8603;46.944;7.412;2023-05-10T14:12:29;18.50;99.90
16974;DHT22;8603;46.944;7.412;2023-05-10T14:14:55;18.70;99.90
16974;DHT22;8603;46.944;7.412;2023-05-10T14:17:21;18.60;99.90
16974;DHT22;8603;46.944;7.412;2023-05-10T14:19:57;18.50;99.90
16974;DHT22;8603;46.944;7.412;2023-05-10T14:22:33;18.40;99.90
16974;DHT22;8603;46.944;7.412;2023-05-10T14:25:01;18.30;99.90
16974;DHT22;8603;46.944;7.412;2023-05-10T14:27:34;18.20;99.90
16974;DHT22;8603;46.944;7.412;2023-05-10T14:30:00;18.00;99.90
16974;DHT22;8603;46.944;7.412;2023-05-10T14:32:38;17.90;99.90
16974;DHT22;8603;46.944;7.412;2023-05-10T14:35:09;17.70;99.90
16974;DHT22;8603;46.944;7.412;2023-05-10T14:37:38;17.30;99.90
16974;DHT22;8603;46.944;7.412;2023-05-10T14:40:10;17.00;99.90
16974;DHT22;8603;46.944;7.412;2023-05-10T14:42:36;16.70;99.90
16974;DHT22;8603;46.944;7.412;2023-05-10T14:45:07;16.60;99.90
16974;DHT22;8603;46.944;7.412;2023-05-10T14:47:36;16.60;99.90
16974;DHT22;8603;46.944;7.412;2023-05-10T14:50:05;16.70;99.90
16974;DHT22;8603;46.944;7.412;2023-05-10T14:52:31;16.60;99.90
16974;DHT22;8603;46.944;7.412;2023-05-10T14:54:57;16.50;99.90
16974;DHT22;8603;46.944;7.412;2023-05-10T14:57:24;16.70;99.90
16974;DHT22;8603;46.944;7.412;2023-05-10T14:59:49;16.90;99.90
16974;DHT22;8603;46.944;7.412;2023-05-10T15:02:15;17.10;99.90
16974;DHT22;8603;46.944;7.412;2023-05-10T15:04:55;17.30;99.90
16974;DHT22;8603;46.944;7.412;2023-05-10T15:07:24;17.40;99.90
16974;DHT22;8603;46.944;7.412;2023-05-10T15:09:52;17.50;99.90
16974;DHT22;8603;46.944;7.412;2023-05-10T15:12:19;17.60;99.90
16974;DHT22;8603;46.944;7.412;2023-05-10T15:14:55;17.50;99.90
16974;DHT22;8603;46.944;7.412;2023-05-10T15:17:20;17.50;99.90
16974;DHT22;8603;46.944;7.412;2023-05-10T15:19:46;17.50;99.90
16974;DHT22;8603;46.944;7.412;2023-05-10T15:22:12;17.60;99.90
16974;DHT22;8603;46.944;7.412;2023-05-10T15:24:37;17.60;99.90
16974;DHT22;8603;46.944;7.412;2023-05-10T15:27:13;17.60;99.90
16974;DHT22;8603;46.944;7.412;2023-05-10T15:29:39;17.50;99.90
16974;DHT22;8603;46.944;7.412;2023-05-10T15:32:10;17.50;99.90
16974;DHT22;8603;46.944;7.412;2023-05-10T15:34:56;17.40;99.90
16974;DHT22;8603;46.944;7.412;2023-05-10T15:37:21;17.40;99.90
16974;DHT22;8603;46.944;7.412;2023-05-10T15:39:49;17.30;99.90
16974;DHT22;8603;46.944;7.412;2023-05-10T15:42:17;17.20;99.90
16974;DHT22;8603;46.944;7.412;2023-05-10T15:44:51;17.10;99.90
16974;DHT22;8603;46.944;7.412;2023-05-10T15:47:23;16.90;99.90
16974;DHT22;8603;46.944;7.412;2023-05-10T15:50:12;16.70;99.90
16974;DHT22;8603;46.944;7.412;2023-05-10T15:52:37;16.60;99.90
16974;DHT22;8603;46.944;7.412;2023-05-10T15:55:03;16.40;99.90
16974;DHT22;8603;46.944;7.412;2023-05-10T15:57:29;16.30;99.90
16974;DHT22;8603;46.944;7.412;2023-05-10T15:59:55;16.30;99.90
16974;DHT22;8603;46.944;7.412;2023-05-10T16:02:20;16.20;99.90
16974;DHT22;8603;46.944;7.412;2023-05-10T16:04:47;16.10;99.90
16974;DHT22;8603;46.944;7.412;2023-05-10T16:07:13;16.00;99.90
16974;DHT22;8603;46.944;7.412;2023-05-10T16:09:38;15.80;99.90
16974;DHT22;8603;46.944;7.412;2023-05-10T16:12:04;15.80;99.90
16974;DHT22;8603;46.944;7.412;2023-05-10T16:14:29;16.00;99.90
16974;DHT22;8603;46.944;7.412;2023-05-10T16:16:55;16.10;99.90
16974;DHT22;8603;46.944;7.412;2023-05-10T16:19:24;16.10;99.90
16974;DHT22;8603;46.944;7.412;2023-05-10T16:21:52;16.20;99.90
16974;DHT22;8603;46.944;7.412;2023-05-10T16:24:17;16.00;99.90
16974;DHT22;8603;46.944;7.412;2023-05-10T16:26:52;16.00;99.90
16974;DHT22;8603;46.944;7.412;2023-05-10T16:29:17;15.90;99.90
16974;DHT22;8603;46.944;7.412;2023-05-10T16:31:43;16.00;99.90
16974;DHT22;8603;46.944;7.412;2023-05-10T16:34:09;15.70;99.90
16974;DHT22;8603;46.944;7.412;2023-05-10T16:36:36;15.50;99.90
16974;DHT22;8603;46.944;7.412;2023-05-10T16:39:02;15.20;99.90
16974;DHT22;8603;46.944;7.412;2023-05-10T16:41:31;15.10;99.90
16974;DHT22;8603;46.944;7.412;2023-05-10T16:43:56;15.10;99.90
16974;DHT22;8603;46.944;7.412;2023-05-10T16:46:27;15.20;99.90
16974;DHT22;8603;46.944;7.412;2023-05-10T16:48:53;15.20;99.90
16974;DHT22;8603;46.944;7.412;2023-05-10T16:51:18;15.10;99.90
16974;DHT22;8603;46.944;7.412;2023-05-10T16:53:46;15.20;99.90
16974;DHT22;8603;46.944;7.412;2023-05-10T16:56:14;15.30;99.90
16974;DHT22;8603;46.944;7.412;2023-05-10T16:58:42;15.20;99.90
16974;DHT22;8603;46.944;7.412;2023-05-10T17:01:11;15.30;99.90
16974;DHT22;8603;46.944;7.412;2023-05-10T17:03:39;15.00;99.90
16974;DHT22;8603;46.944;7.412;2023-05-10T17:06:05;14.90;99.90
16974;DHT22;8603;46.944;7.412;2023-05-10T17:08:31;14.80;99.90
16974;DHT22;8603;46.944;7.412;2023-05-10T17:11:00;14.70;99.90
16974;DHT22;8603;46.944;7.412;2023-05-10T17:13:31;14.60;99.90
16974;DHT22;8603;46.944;7.412;2023-05-10T17:16:01;14.50;99.90
16974;DHT22;8603;46.944;7.412;2023-05-10T17:18:39;14.40;99.90
16974;DHT22;8603;46.944;7.412;2023-05-10T17:21:04;14.20;99.90
16974;DHT22;8603;46.944;7.412;2023-05-10T17:23:30;14.00;99.90
16974;DHT22;8603;46.944;7.412;2023-05-10T17:25:55;13.90;99.90
16974;DHT22;8603;46.944;7.412;2023-05-10T17:28:21;13.70;99.90
16974;DHT22;8603;46.944;7.412;2023-05-10T17:30:56;13.50;99.90
16974;DHT22;8603;46.944;7.412;2023-05-10T17:33:22;13.40;99.90
16974;DHT22;8603;46.944;7.412;2023-05-10T17:35:47;13.40;99.90
16974;DHT22;8603;46.944;7.412;2023-05-10T17:38:20;13.50;99.90
16974;DHT22;8603;46.944;7.412;2023-05-10T17:40:50;13.60;99.90
16974;DHT22;8603;46.944;7.412;2023-05-10T17:43:18;13.90;99.90
16974;DHT22;8603;46.944;7.412;2023-05-10T17:45:51;14.20;99.90
16974;DHT22;8603;46.944;7.412;2023-05-10T17:48:26;14.40;99.90
16974;DHT22;8603;46.944;7.412;2023-05-10T17:51:06;14.40;99.90
16974;DHT22;8603;46.944;7.412;2023-05-10T17:53:40;14.50;99.90
16974;DHT22;8603;46.944;7.412;2023-05-10T17:56:06;14.50;99.90
16974;DHT22;8603;46.944;7.412;2023-05-10T17:58:35;14.50;99.90
16974;DHT22;8603;46.944;7.412;2023-05-10T18:01:22;14.40;99.90
16974;DHT22;8603;46.944;7.412;2023-05-10T18:03:55;14.20;99.90
16974;DHT22;8603;46.944;7.412;2023-05-10T18:06:30;14.00;99.90
16974;DHT22;8603;46.944;7.412;2023-05-10T18:09:17;14.00;99.90
16974;DHT22;8603;46.944;7.412;2023-05-10T18:11:47;13.90;99.90
16974;DHT22;8603;46.944;7.412;2023-05-10T18:14:15;13.70;99.90
16974;DHT22;8603;46.944;7.412;2023-05-10T18:17:04;13.70;99.90
16974;DHT22;8603;46.944;7.412;2023-05-10T18:19:32;13.70;99.90
16974;DHT22;8603;46.944;7.412;2023-05-10T18:21:57;13.60;99.90
16974;DHT22;8603;46.944;7.412;2023-05-10T18:24:23;13.30;99.90
16974;DHT22;8603;46.944;7.412;2023-05-10T18:26:49;13.10;99.90
16974;DHT22;8603;46.944;7.412;2023-05-10T18:29:14;12.80;99.90
16974;DHT22;8603;46.944;7.412;2023-05-10T18:35:15;12.40;99.90
16974;DHT22;8603;46.944;7.412;2023-05-10T18:38:09;12.30;99.90
16974;DHT22;8603;46.944;7.412;2023-05-10T18:40:38;12.20;99.90
16974;DHT22;8603;46.944;7.412;2023-05-10T18:43:04;12.00;99.90
16974;DHT22;8603;46.944;7.412;2023-05-10T18:45:29;11.90;99.90
16974;DHT22;8603;46.944;7.412;2023-05-10T18:47:55;11.60;99.90
16974;DHT22;8603;46.944;7.412;2023-05-10T18:50:21;11.40;99.90